sensor_id;sensor_type;location;lat;lon;timestamp;temperature;humidity
48535;DHT22;34323;52.022;5.686;2023-03-12T00:00:20;6.80;99.90
48535;DHT22;34323;52.022;5.686;2023-03-12T00:02:46;6.50;99.90
48535;DHT22;34323;52.022;5.686;2023-03-12T00:05:12;6.40;99.90
48535;DHT22;34323;52.022;5.686;2023-03-12T00:07:37;6.40;99.90
48535;DHT22;34323;52.022;5.686;2023-03-12T00:10:04;6.60;99.90
48535;DHT22;34323;52.022;5.686;2023-03-12T00:12:30;6.70;99.90
48535;DHT22;34323;52.022;5.686;2023-03-12T00:14:56;6.90;99.90
48535;DHT22;34323;52.022;5.686;2023-03-12T00:17:21;7.10;99.90
48535;DHT22;34323;52.022;5.686;2023-03-12T00:19:53;7.10;99.90
48535;DHT22;34323;52.022;5.686;2023-03-12T00:22:19;7.10;99.90
48535;DHT22;34323;52.022;5.686;2023-03-12T00:24:55;7.10;99.90
48535;DHT22;34323;52.022;5.686;2023-03-12T00:27:21;7.30;99.90
48535;DHT22;34323;52.022;5.686;2023-03-12T00:29:47;7.20;99.90
48535;DHT22;34323;52.022;5.686;2023-03-12T00:32:13;7.20;99.90
48535;DHT22;34323;52.022;5.686;2023-03-12T00:34:39;7.20;99.90
48535;DHT22;34323;52.022;5.686;2023-03-12T00:37:05;7.40;99.90
48535;DHT22;34323;52.022;5.686;2023-03-12T00:39:32;7.50;99.90
48535;DHT22;34323;52.022;5.686;2023-03-12T00:41:58;7.40;99.90
48535;DHT22;34323;52.022;5.686;2023-03-12T00:44:23;7.30;99.90
48535;DHT22;34323;52.022;5.686;2023-03-12T00:46:49;7.20;99.90
48535;DHT22;34323;52.022;5.686;2023-03-12T00:49:15;7.40;99.90
48535;DHT22;34323;52.022;5.686;2023-03-12T00:51:40;7.50;99.90
48535;DHT22;34323;52.022;5.686;2023-03-12T00:54:06;7.40;99.90
48535;DHT22;34323;52.022;5.686;2023-03-12T00:56:32;7.60;99.90
48535;DHT22;34323;52.022;5.686;2023-03-12T00:58:57;7.40;99.90
48535;DHT22;34323;52.022;5.686;2023-03-12T01:01:23;7.30;99.90
48535;DHT22;34323;52.022;5.686;2023-03-12T01:03:49;7.30;99.90
48535;DHT22;34323;52.022;5.686;2023-03-12T01:06:16;7.30;99.90
48535;DHT22;34323;52.022;5.686;2023-03-12T01:08:42;7.50;99.90
48535;DHT22;34323;52.022;5.686;2023-03-12T01:11:15;7.30;99.90
48535;DHT22;34323;52.022;5.686;2023-03-12T01:13:41;7.20;99.90
48535;DHT22;34323;52.022;5.686;2023-03-12T01:16:07;7.20;99.90
48535;DHT22;34323;52.022;5.686;2023-03-12T01:18:33;7.30;99.90
48535;DHT22;34323;52.022;5.686;2023-03-12T01:20:59;7.30;99.90
48535;DHT22;34323;52.022;5.686;2023-03-12T01:23:25;7.10;99.90
48535;DHT22;34323;52.022;5.686;2023-03-12T01:25:50;6.90;99.90
48535;DHT22;34323;52.022;5.686;2023-03-12T01:28:17;6.80;99.90
48535;DHT22;34323;52.022;5.686;2023-03-12T01:30:43;7.00;99.90
48535;DHT22;34323;52.022;5.686;2023-03-12T01:33:09;7.10;99.90
48535;DHT22;34323;52.022;5.686;2023-03-12T01:35:36;7.10;99.90
48535;DHT22;34323;52.022;5.686;2023-03-12T01:38:02;7.40;99.90
48535;DHT22;34323;52.022;5.686;2023-03-12T01:40:27;7.60;99.90
48535;DHT22;34323;52.022;5.686;2023-03-12T01:42:55;7.70;99.90
48535;DHT22;34323;52.022;5.686;2023-03-12T01:48:20;7.60;99.90
48535;DHT22;34323;52.022;5.686;2023-03-12T01:50:46;7.10;99.90
48535;DHT22;34323;52.022;5.686;2023-03-12T01:53:12;6.80;99.90
48535;DHT22;34323;52.022;5.686;2023-03-12T01:55:38;6.60;99.90
48535;DHT22;34323;52.022;5.686;2023-03-12T01:58:04;6.80;99.90
48535;DHT22;34323;52.022;5.686;2023-03-12T02:00:31;7.00;99.90
48535;DHT22;34323;52.022;5.686;2023-03-12T02:03:01;7.20;99.90
48535;DHT22;34323;52.022;5.686;2023-03-12T02:08:19;7.20;99.90
48535;DHT22;34323;52.022;5.686;2023-03-12T02:10:47;7.20;99.90
48535;DHT22;34323;52.022;5.686;2023-03-12T02:13:13;7.30;99.90
48535;DHT22;34323;52.022;5.686;2023-03-12T02:15:39;7.30;99.90
48535;DHT22;34323;52.022;5.686;2023-03-12T02:18:10;7.40;99.90
48535;DHT22;34323;52.022;5.686;2023-03-12T02:20:52;7.50;99.90
48535;DHT22;34323;52.022;5.686;2023-03-12T02:26:03;7.60;99.90
48535;DHT22;34323;52.022;5.686;2023-03-12T02:28:32;7.50;99.90
48535;DHT22;34323;52.022;5.686;2023-03-12T02:31:01;7.40;99.90
48535;DHT22;34323;52.022;5.686;2023-03-12T02:33:27;7.50;99.90
48535;DHT22;34323;52.022;5.686;2023-03-12T02:35:54;7.60;99.90
48535;DHT22;34323;52.022;5.686;2023-03-12T02:38:44;7.70;99.90
48535;DHT22;34323;52.022;5.686;2023-03-12T02:43:44;7.80;99.90
48535;DHT22;34323;52.022;5.686;2023-03-12T02:46:11;7.80;99.90
48535;DHT22;34323;52.022;5.686;2023-03-12T02:48:37;7.90;99.90
48535;DHT22;34323;52.022;5.686;2023-03-12T02:51:02;7.90;99.90
48535;DHT22;34323;52.022;5.686;2023-03-12T02:53:28;8.10;99.90
48535;DHT22;34323;52.022;5.686;2023-03-12T02:55:54;8.00;99.90
48535;DHT22;34323;52.022;5.686;2023-03-12T02:58:20;8.10;99.90
48535;DHT22;34323;52.022;5.686;2023-03-12T03:00:46;8.00;99.90
48535;DHT22;34323;52.022;5.686;2023-03-12T03:03:11;7.70;99.90
48535;DHT22;34323;52.022;5.686;2023-03-12T03:06:23;7.80;99.90
48535;DHT22;34323;52.022;5.686;2023-03-12T03:09:29;7.60;99.90
48535;DHT22;34323;52.022;5.686;2023-03-12T03:12:25;7.40;99.90
48535;DHT22;34323;52.022;5.686;2023-03-12T03:15:07;7.60;99.90
48535;DHT22;34323;52.022;5.686;2023-03-12T03:17:41;7.60;99.90
48535;DHT22;34323;52.022;5.686;2023-03-12T03:20:15;7.40;99.90
48535;DHT22;34323;52.022;5.686;2023-03-12T03:22:52;7.40;99.90
48535;DHT22;34323;52.022;5.686;2023-03-12T03:25:50;7.40;99.90
48535;DHT22;34323;52.022;5.686;2023-03-12T03:28:27;7.60;99.90
48535;DHT22;34323;52.022;5.686;2023-03-12T03:30:57;7.70;99.90
48535;DHT22;34323;52.022;5.686;2023-03-12T03:33:51;7.80;99.90
48535;DHT22;34323;52.022;5.686;2023-03-12T03:36:33;7.80;99.90
48535;DHT22;34323;52.022;5.686;2023-03-12T03:39:18;7.80;99.90
48535;DHT22;34323;52.022;5.686;2023-03-12T03:42:09;7.60;99.90
48535;DHT22;34323;52.022;5.686;2023-03-12T03:44:52;7.30;99.90
48535;DHT22;34323;52.022;5.686;2023-03-12T03:47:25;7.20;99.90
48535;DHT22;34323;52.022;5.686;2023-03-12T03:50:09;7.40;99.90
48535;DHT22;34323;52.022;5.686;2023-03-12T03:52:38;7.40;99.90
48535;DHT22;34323;52.022;5.686;2023-03-12T03:55:27;7.40;99.90
48535;DHT22;34323;52.022;5.686;2023-03-12T03:57:55;7.70;99.90
48535;DHT22;34323;52.022;5.686;2023-03-12T04:00:32;7.80;99.90
48535;DHT22;34323;52.022;5.686;2023-03-12T04:03:09;8.00;99.90
48535;DHT22;34323;52.022;5.686;2023-03-12T04:05:41;8.10;99.90
48535;DHT22;34323;52.022;5.686;2023-03-12T04:08:22;7.80;99.90
48535;DHT22;34323;52.022;5.686;2023-03-12T04:13:52;8.10;99.90
48535;DHT22;34323;52.022;5.686;2023-03-12T04:16:29;8.10;99.90
48535;DHT22;34323;52.022;5.686;2023-03-12T04:21:54;7.90;99.90
48535;DHT22;34323;52.022;5.686;2023-03-12T04:24:29;8.10;99.90
48535;DHT22;34323;52.022;5.686;2023-03-12T04:27:20;7.90;99.90
48535;DHT22;34323;52.022;5.686;2023-03-12T04:29:52;7.70;99.90
48535;DHT22;34323;52.022;5.686;2023-03-12T04:32:25;7.90;99.90
48535;DHT22;34323;52.022;5.686;2023-03-12T04:35:19;7.80;99.90
48535;DHT22;34323;52.022;5.686;2023-03-12T04:38:01;8.00;99.90
48535;DHT22;34323;52.022;5.686;2023-03-12T04:41:05;7.80;99.90
48535;DHT22;34323;52.022;5.686;2023-03-12T04:43:34;7.60;99.90
48535;DHT22;34323;52.022;5.686;2023-03-12T04:46:11;7.40;99.90
48535;DHT22;34323;52.022;5.686;2023-03-12T04:48:52;7.20;99.90
48535;DHT22;34323;52.022;5.686;2023-03-12T04:51:24;6.90;99.90
48535;DHT22;34323;52.022;5.686;2023-03-12T04:53:52;6.80;99.90
48535;DHT22;34323;52.022;5.686;2023-03-12T04:56:46;6.40;99.90
48535;DHT22;34323;52.022;5.686;2023-03-12T04:59:19;6.50;99.90
48535;DHT22;34323;52.022;5.686;2023-03-12T05:01:45;6.70;99.90
48535;DHT22;34323;52.022;5.686;2023-03-12T05:04:20;7.00;99.90
48535;DHT22;34323;52.022;5.686;2023-03-12T05:06:51;7.30;99.90
48535;DHT22;34323;52.022;5.686;2023-03-12T05:09:29;7.30;99.90
48535;DHT22;34323;52.022;5.686;2023-03-12T05:12:03;7.20;99.90
48535;DHT22;34323;52.022;5.686;2023-03-12T05:14:30;6.90;99.90
48535;DHT22;34323;52.022;5.686;2023-03-12T05:16:59;7.20;99.90
48535;DHT22;34323;52.022;5.686;2023-03-12T05:19:40;7.20;99.90
48535;DHT22;34323;52.022;5.686;2023-03-12T05:22:22;7.30;99.90
48535;DHT22;34323;52.022;5.686;2023-03-12T05:27:35;7.00;99.90
48535;DHT22;34323;52.022;5.686;2023-03-12T05:30:33;7.20;99.90
48535;DHT22;34323;52.022;5.686;2023-03-12T05:33:13;7.30;99.90
48535;DHT22;34323;52.022;5.686;2023-03-12T05:35:41;7.10;99.90
48535;DHT22;34323;52.022;5.686;2023-03-12T05:38:15;7.50;99.90
48535;DHT22;34323;52.022;5.686;2023-03-12T05:40:56;7.40;99.90
48535;DHT22;34323;52.022;5.686;2023-03-12T05:43:25;7.10;99.90
48535;DHT22;34323;52.022;5.686;2023-03-12T05:46:05;6.90;99.90
48535;DHT22;34323;52.022;5.686;2023-03-12T05:48:38;7.10;99.90
48535;DHT22;34323;52.022;5.686;2023-03-12T05:51:15;7.50;99.90
48535;DHT22;34323;52.022;5.686;2023-03-12T05:54:05;7.50;99.90
48535;DHT22;34323;52.022;5.686;2023-03-12T05:56:40;7.30;99.90
48535;DHT22;34323;52.022;5.686;2023-03-12T05:59:17;7.30;99.90
48535;DHT22;34323;52.022;5.686;2023-03-12T06:01:49;7.20;99.90
48535;DHT22;34323;52.022;5.686;2023-03-12T06:04:18;7.30;99.90
48535;DHT22;34323;52.022;5.686;2023-03-12T06:06:57;7.40;99.90
48535;DHT22;34323;52.022;5.686;2023-03-12T06:09:32;7.50;99.90
48535;DHT22;34323;52.022;5.686;2023-03-12T06:12:25;7.70;99.90
48535;DHT22;34323;52.022;5.686;2023-03-12T06:15:05;7.70;99.90
48535;DHT22;34323;52.022;5.686;2023-03-12T06:18:02;7.10;99.90
48535;DHT22;34323;52.022;5.686;2023-03-12T06:20:36;7.10;99.90
48535;DHT22;34323;52.022;5.686;2023-03-12T06:23:06;7.20;99.90
48535;DHT22;34323;52.022;5.686;2023-03-12T06:26:00;7.20;99.90
48535;DHT22;34323;52.022;5.686;2023-03-12T06:28:41;7.40;99.90
48535;DHT22;34323;52.022;5.686;2023-03-12T06:31:09;7.50;99.90
48535;DHT22;34323;52.022;5.686;2023-03-12T06:33:41;7.30;99.90
48535;DHT22;34323;52.022;5.686;2023-03-12T06:36:10;7.20;99.90
48535;DHT22;34323;52.022;5.686;2023-03-12T06:38:55;7.10;99.90
48535;DHT22;34323;52.022;5.686;2023-03-12T06:41:35;7.00;99.90
48535;DHT22;34323;52.022;5.686;2023-03-12T06:44:19;6.80;99.90
48535;DHT22;34323;52.022;5.686;2023-03-12T06:47:08;7.00;99.90
48535;DHT22;34323;52.022;5.686;2023-03-12T06:49:45;7.20;99.90
48535;DHT22;34323;52.022;5.686;2023-03-12T06:52:22;7.20;99.90
48535;DHT22;34323;52.022;5.686;2023-03-12T06:54:51;6.80;99.90
48535;DHT22;34323;52.022;5.686;2023-03-12T06:57:32;6.50;99.90
48535;DHT22;34323;52.022;5.686;2023-03-12T07:02:42;6.10;99.90
48535;DHT22;34323;52.022;5.686;2023-03-12T07:05:17;5.90;99.90
48535;DHT22;34323;52.022;5.686;2023-03-12T07:08:10;6.00;99.90
48535;DHT22;34323;52.022;5.686;2023-03-12T07:10:57;6.30;99.90
48535;DHT22;34323;52.022;5.686;2023-03-12T07:13:23;6.90;99.90
48535;DHT22;34323;52.022;5.686;2023-03-12T07:16:01;7.30;99.90
48535;DHT22;34323;52.022;5.686;2023-03-12T07:18:38;7.10;99.90
48535;DHT22;34323;52.022;5.686;2023-03-12T07:21:21;7.00;99.90
48535;DHT22;34323;52.022;5.686;2023-03-12T07:24:08;6.90;99.90
48535;DHT22;34323;52.022;5.686;2023-03-12T07:26:37;6.90;99.90
48535;DHT22;34323;52.022;5.686;2023-03-12T07:29:10;7.10;99.90
48535;DHT22;34323;52.022;5.686;2023-03-12T07:31:44;6.90;99.90
48535;DHT22;34323;52.022;5.686;2023-03-12T07:34:13;6.60;99.90
48535;DHT22;34323;52.022;5.686;2023-03-12T07:36:48;6.70;99.90
48535;DHT22;34323;52.022;5.686;2023-03-12T07:39:44;6.70;99.90
48535;DHT22;34323;52.022;5.686;2023-03-12T07:42:30;6.80;99.90
48535;DHT22;34323;52.022;5.686;2023-03-12T07:45:20;6.80;99.90
48535;DHT22;34323;52.022;5.686;2023-03-12T07:47:57;6.80;99.90
48535;DHT22;34323;52.022;5.686;2023-03-12T07:50:23;7.30;99.90
48535;DHT22;34323;52.022;5.686;2023-03-12T07:53:02;7.10;99.90
48535;DHT22;34323;52.022;5.686;2023-03-12T07:58:22;7.20;99.90
48535;DHT22;34323;52.022;5.686;2023-03-12T08:00:51;7.00;99.90
48535;DHT22;34323;52.022;5.686;2023-03-12T08:03:27;7.10;99.90
48535;DHT22;34323;52.022;5.686;2023-03-12T08:06:22;7.10;99.90
48535;DHT22;34323;52.022;5.686;2023-03-12T08:08:56;7.10;99.90
48535;DHT22;34323;52.022;5.686;2023-03-12T08:11:34;7.20;99.90
48535;DHT22;34323;52.022;5.686;2023-03-12T08:14:12;7.30;99.90
48535;DHT22;34323;52.022;5.686;2023-03-12T08:16:46;7.00;99.90
48535;DHT22;34323;52.022;5.686;2023-03-12T08:19:12;7.10;99.90
48535;DHT22;34323;52.022;5.686;2023-03-12T08:21:46;7.20;99.90
48535;DHT22;34323;52.022;5.686;2023-03-12T08:24:31;7.20;99.90
48535;DHT22;34323;52.022;5.686;2023-03-12T08:27:16;7.20;99.90
48535;DHT22;34323;52.022;5.686;2023-03-12T08:29:47;6.90;99.90
48535;DHT22;34323;52.022;5.686;2023-03-12T08:32:16;6.70;99.90
48535;DHT22;34323;52.022;5.686;2023-03-12T08:34:45;6.60;99.90
48535;DHT22;34323;52.022;5.686;2023-03-12T08:37:14;7.20;99.90
48535;DHT22;34323;52.022;5.686;2023-03-12T08:39:53;7.50;99.90
48535;DHT22;34323;52.022;5.686;2023-03-12T08:42:51;7.20;99.90
48535;DHT22;34323;52.022;5.686;2023-03-12T08:45:27;6.80;99.90
48535;DHT22;34323;52.022;5.686;2023-03-12T08:48:08;6.90;99.90
48535;DHT22;34323;52.022;5.686;2023-03-12T08:50:39;6.80;99.90
48535;DHT22;34323;52.022;5.686;2023-03-12T08:53:08;7.20;99.90
48535;DHT22;34323;52.022;5.686;2023-03-12T08:55:56;7.60;99.90
48535;DHT22;34323;52.022;5.686;2023-03-12T08:58:43;7.30;99.90
48535;DHT22;34323;52.022;5.686;2023-03-12T09:01:34;7.00;99.90
48535;DHT22;34323;52.022;5.686;2023-03-12T09:04:08;6.80;99.90
48535;DHT22;34323;52.022;5.686;2023-03-12T09:07:04;6.70;99.90
48535;DHT22;34323;52.022;5.686;2023-03-12T09:12:33;7.00;99.90
48535;DHT22;34323;52.022;5.686;2023-03-12T09:18:09;6.70;99.90
48535;DHT22;34323;52.022;5.686;2023-03-12T09:20:42;7.10;99.90
48535;DHT22;34323;52.022;5.686;2023-03-12T09:23:45;7.30;99.90
48535;DHT22;34323;52.022;5.686;2023-03-12T09:26:20;7.40;99.90
48535;DHT22;34323;52.022;5.686;2023-03-12T09:29:52;7.50;99.90
48535;DHT22;34323;52.022;5.686;2023-03-12T09:35:31;7.60;99.90
48535;DHT22;34323;52.022;5.686;2023-03-12T09:38:47;7.90;99.90
48535;DHT22;34323;52.022;5.686;2023-03-12T09:41:37;7.90;99.90
48535;DHT22;34323;52.022;5.686;2023-03-12T09:44:42;8.00;99.90
48535;DHT22;34323;52.022;5.686;2023-03-12T09:47:50;8.20;99.90
48535;DHT22;34323;52.022;5.686;2023-03-12T09:56:16;8.70;99.90
48535;DHT22;34323;52.022;5.686;2023-03-12T09:58:46;8.60;99.90
48535;DHT22;34323;52.022;5.686;2023-03-12T10:01:43;8.90;99.90
48535;DHT22;34323;52.022;5.686;2023-03-12T10:07:57;9.00;99.90
48535;DHT22;34323;52.022;5.686;2023-03-12T10:11:03;8.80;99.90
48535;DHT22;34323;52.022;5.686;2023-03-12T10:19:44;9.70;99.90
48535;DHT22;34323;52.022;5.686;2023-03-12T10:22:38;9.80;99.90
48535;DHT22;34323;52.022;5.686;2023-03-12T10:28:26;10.40;99.90
48535;DHT22;34323;52.022;5.686;2023-03-12T10:31:06;10.60;99.90
48535;DHT22;34323;52.022;5.686;2023-03-12T10:34:01;10.80;99.90
48535;DHT22;34323;52.022;5.686;2023-03-12T10:36:43;10.70;99.90
48535;DHT22;34323;52.022;5.686;2023-03-12T10:39:22;10.80;99.90
48535;DHT22;34323;52.022;5.686;2023-03-12T10:42:04;11.10;99.90
48535;DHT22;34323;52.022;5.686;2023-03-12T10:48:07;10.70;99.90
48535;DHT22;34323;52.022;5.686;2023-03-12T10:53:55;11.00;99.90
48535;DHT22;34323;52.022;5.686;2023-03-12T10:56:27;11.10;99.90
48535;DHT22;34323;52.022;5.686;2023-03-12T10:58:56;11.40;99.90
48535;DHT22;34323;52.022;5.686;2023-03-12T11:01:41;11.70;99.90
48535;DHT22;34323;52.022;5.686;2023-03-12T11:04:42;12.10;99.90
48535;DHT22;34323;52.022;5.686;2023-03-12T11:07:27;12.00;99.90
48535;DHT22;34323;52.022;5.686;2023-03-12T11:13:00;12.00;99.90
48535;DHT22;34323;52.022;5.686;2023-03-12T11:15:44;12.30;99.90
48535;DHT22;34323;52.022;5.686;2023-03-12T11:21:26;12.10;99.90
48535;DHT22;34323;52.022;5.686;2023-03-12T11:26:57;12.10;99.90
48535;DHT22;34323;52.022;5.686;2023-03-12T11:29:38;12.60;99.90
48535;DHT22;34323;52.022;5.686;2023-03-12T11:35:07;12.80;99.90
48535;DHT22;34323;52.022;5.686;2023-03-12T11:44:31;12.20;99.90
48535;DHT22;34323;52.022;5.686;2023-03-12T11:47:39;12.50;99.90
48535;DHT22;34323;52.022;5.686;2023-03-12T11:57:27;12.90;99.90
48535;DHT22;34323;52.022;5.686;2023-03-12T12:00:19;13.20;99.90
48535;DHT22;34323;52.022;5.686;2023-03-12T12:06:06;13.50;99.90
48535;DHT22;34323;52.022;5.686;2023-03-12T12:26:56;13.70;99.90
48535;DHT22;34323;52.022;5.686;2023-03-12T12:33:05;13.20;99.90
48535;DHT22;34323;52.022;5.686;2023-03-12T12:35:41;13.40;99.90
48535;DHT22;34323;52.022;5.686;2023-03-12T12:44:19;13.50;99.90
48535;DHT22;34323;52.022;5.686;2023-03-12T12:47:08;13.40;99.90
48535;DHT22;34323;52.022;5.686;2023-03-12T12:49:47;13.40;99.90
48535;DHT22;34323;52.022;5.686;2023-03-12T12:52:23;13.90;99.90
48535;DHT22;34323;52.022;5.686;2023-03-12T12:58:12;13.50;99.90
48535;DHT22;34323;52.022;5.686;2023-03-12T13:01:05;13.60;99.90
48535;DHT22;34323;52.022;5.686;2023-03-12T13:04:12;13.80;99.90
48535;DHT22;34323;52.022;5.686;2023-03-12T13:10:04;13.80;99.90
48535;DHT22;34323;52.022;5.686;2023-03-12T13:13:20;13.80;99.90
48535;DHT22;34323;52.022;5.686;2023-03-12T13:18:58;13.60;99.90
48535;DHT22;34323;52.022;5.686;2023-03-12T13:21:59;13.60;99.90
48535;DHT22;34323;52.022;5.686;2023-03-12T13:27:56;13.90;99.90
48535;DHT22;34323;52.022;5.686;2023-03-12T13:42:32;13.50;99.90
48535;DHT22;34323;52.022;5.686;2023-03-12T13:45:25;13.60;99.90
48535;DHT22;34323;52.022;5.686;2023-03-12T13:48:22;13.70;99.90
48535;DHT22;34323;52.022;5.686;2023-03-12T13:51:39;13.80;99.90
48535;DHT22;34323;52.022;5.686;2023-03-12T13:54:05;13.80;99.90
48535;DHT22;34323;52.022;5.686;2023-03-12T13:57:03;13.70;99.90
48535;DHT22;34323;52.022;5.686;2023-03-12T14:02:39;14.10;99.90
48535;DHT22;34323;52.022;5.686;2023-03-12T14:14:15;15.30;99.90
48535;DHT22;34323;52.022;5.686;2023-03-12T14:17:01;15.80;99.90
48535;DHT22;34323;52.022;5.686;2023-03-12T14:22:58;16.50;99.90
48535;DHT22;34323;52.022;5.686;2023-03-12T14:29:00;16.60;99.90
48535;DHT22;34323;52.022;5.686;2023-03-12T14:31:29;16.70;99.90
48535;DHT22;34323;52.022;5.686;2023-03-12T14:34:15;16.30;99.90
48535;DHT22;34323;52.022;5.686;2023-03-12T14:37:19;16.40;99.90
48535;DHT22;34323;52.022;5.686;2023-03-12T14:40:03;16.60;99.90
48535;DHT22;34323;52.022;5.686;2023-03-12T14:42:47;16.30;99.90
48535;DHT22;34323;52.022;5.686;2023-03-12T14:45:32;16.20;99.90
48535;DHT22;34323;52.022;5.686;2023-03-12T14:48:15;16.30;99.90
48535;DHT22;34323;52.022;5.686;2023-03-12T14:50:59;16.10;99.90
48535;DHT22;34323;52.022;5.686;2023-03-12T14:53:36;16.00;99.90
48535;DHT22;34323;52.022;5.686;2023-03-12T14:56:20;15.70;99.90
48535;DHT22;34323;52.022;5.686;2023-03-12T14:59:03;15.50;99.90
48535;DHT22;34323;52.022;5.686;2023-03-12T15:02:17;15.40;99.90
48535;DHT22;34323;52.022;5.686;2023-03-12T15:04:53;15.50;99.90
48535;DHT22;34323;52.022;5.686;2023-03-12T15:07:34;15.50;99.90
48535;DHT22;34323;52.022;5.686;2023-03-12T15:10:29;15.60;99.90
48535;DHT22;34323;52.022;5.686;2023-03-12T15:13:02;15.50;99.90
48535;DHT22;34323;52.022;5.686;2023-03-12T15:15:45;15.40;99.90
48535;DHT22;34323;52.022;5.686;2023-03-12T15:21:25;15.30;99.90
48535;DHT22;34323;52.022;5.686;2023-03-12T15:23:52;15.70;99.90
48535;DHT22;34323;52.022;5.686;2023-03-12T15:26:40;15.70;99.90
48535;DHT22;34323;52.022;5.686;2023-03-12T15:29:29;15.70;99.90
48535;DHT22;34323;52.022;5.686;2023-03-12T15:32:02;16.00;99.90
48535;DHT22;34323;52.022;5.686;2023-03-12T15:34:53;15.60;99.90
48535;DHT22;34323;52.022;5.686;2023-03-12T15:37:31;15.40;99.90
48535;DHT22;34323;52.022;5.686;2023-03-12T15:40:28;15.40;99.90
48535;DHT22;34323;52.022;5.686;2023-03-12T15:43:13;15.90;99.90
48535;DHT22;34323;52.022;5.686;2023-03-12T15:45:59;15.30;99.90
48535;DHT22;34323;52.022;5.686;2023-03-12T15:48:44;14.80;99.90
48535;DHT22;34323;52.022;5.686;2023-03-12T15:51:36;15.20;99.90
48535;DHT22;34323;52.022;5.686;2023-03-12T15:54:27;15.10;99.90
48535;DHT22;34323;52.022;5.686;2023-03-12T15:57:36;15.20;99.90
48535;DHT22;34323;52.022;5.686;2023-03-12T16:00:13;15.50;99.90
48535;DHT22;34323;52.022;5.686;2023-03-12T16:03:00;15.90;99.90
48535;DHT22;34323;52.022;5.686;2023-03-12T16:05:42;16.10;99.90
48535;DHT22;34323;52.022;5.686;2023-03-12T16:08:32;16.20;99.90
48535;DHT22;34323;52.022;5.686;2023-03-12T16:11:25;16.10;99.90
48535;DHT22;34323;52.022;5.686;2023-03-12T16:14:06;15.80;99.90
48535;DHT22;34323;52.022;5.686;2023-03-12T16:16:47;15.80;99.90
48535;DHT22;34323;52.022;5.686;2023-03-12T16:19:27;15.80;99.90
48535;DHT22;34323;52.022;5.686;2023-03-12T16:22:09;16.10;99.90
48535;DHT22;34323;52.022;5.686;2023-03-12T16:24:38;15.90;99.90
48535;DHT22;34323;52.022;5.686;2023-03-12T16:27:30;15.80;99.90
48535;DHT22;34323;52.022;5.686;2023-03-12T16:30:16;15.80;99.90
48535;DHT22;34323;52.022;5.686;2023-03-12T16:33:00;15.70;99.90
48535;DHT22;34323;52.022;5.686;2023-03-12T16:35:33;15.30;99.90
48535;DHT22;34323;52.022;5.686;2023-03-12T16:38:11;14.70;99.90
48535;DHT22;34323;52.022;5.686;2023-03-12T16:40:51;14.60;99.90
48535;DHT22;34323;52.022;5.686;2023-03-12T16:43:28;14.50;99.90
48535;DHT22;34323;52.022;5.686;2023-03-12T16:46:28;14.80;99.90
48535;DHT22;34323;52.022;5.686;2023-03-12T16:51:50;15.40;99.90
48535;DHT22;34323;52.022;5.686;2023-03-12T16:54:41;15.70;99.90
48535;DHT22;34323;52.022;5.686;2023-03-12T16:57:26;15.80;99.90
48535;DHT22;34323;52.022;5.686;2023-03-12T16:59:57;15.70;99.90
48535;DHT22;34323;52.022;5.686;2023-03-12T17:02:41;15.70;99.90
48535;DHT22;34323;52.022;5.686;2023-03-12T17:08:15;15.40;99.90
48535;DHT22;34323;52.022;5.686;2023-03-12T17:10:53;15.00;99.90
48535;DHT22;34323;52.022;5.686;2023-03-12T17:13:28;14.60;99.90
48535;DHT22;34323;52.022;5.686;2023-03-12T17:16:05;13.90;99.90
48535;DHT22;34323;52.022;5.686;2023-03-12T17:21:57;14.20;99.90
48535;DHT22;34323;52.022;5.686;2023-03-12T17:24:29;14.50;99.90
48535;DHT22;34323;52.022;5.686;2023-03-12T17:27:14;14.20;99.90
48535;DHT22;34323;52.022;5.686;2023-03-12T17:30:16;14.00;99.90
48535;DHT22;34323;52.022;5.686;2023-03-12T17:33:12;14.20;99.90
48535;DHT22;34323;52.022;5.686;2023-03-12T17:36:12;14.20;99.90
48535;DHT22;34323;52.022;5.686;2023-03-12T17:38:50;14.70;99.90
48535;DHT22;34323;52.022;5.686;2023-03-12T17:41:16;14.60;99.90
48535;DHT22;34323;52.022;5.686;2023-03-12T17:47:02;14.30;99.90
48535;DHT22;34323;52.022;5.686;2023-03-12T17:49:38;14.50;99.90
48535;DHT22;34323;52.022;5.686;2023-03-12T17:52:17;14.60;99.90
48535;DHT22;34323;52.022;5.686;2023-03-12T17:55:13;14.70;99.90
48535;DHT22;34323;52.022;5.686;2023-03-12T18:00:40;14.80;99.90
48535;DHT22;34323;52.022;5.686;2023-03-12T18:03:17;14.40;99.90
48535;DHT22;34323;52.022;5.686;2023-03-12T18:06:03;14.30;99.90
48535;DHT22;34323;52.022;5.686;2023-03-12T18:08:48;14.40;99.90
48535;DHT22;34323;52.022;5.686;2023-03-12T18:11:19;14.50;99.90
48535;DHT22;34323;52.022;5.686;2023-03-12T18:13:58;14.50;99.90
48535;DHT22;34323;52.022;5.686;2023-03-12T18:16:35;14.30;99.90
48535;DHT22;34323;52.022;5.686;2023-03-12T18:19:30;14.30;99.90
48535;DHT22;34323;52.022;5.686;2023-03-12T18:22:00;14.40;99.90
48535;DHT22;34323;52.022;5.686;2023-03-12T18:24:31;14.20;99.90
48535;DHT22;34323;52.022;5.686;2023-03-12T18:33:22;14.10;99.90
48535;DHT22;34323;52.022;5.686;2023-03-12T18:36:08;14.30;99.90
48535;DHT22;34323;52.022;5.686;2023-03-12T18:39:03;14.40;99.90
48535;DHT22;34323;52.022;5.686;2023-03-12T18:44:37;13.60;99.90
48535;DHT22;34323;52.022;5.686;2023-03-12T18:47:21;13.50;99.90
48535;DHT22;34323;52.022;5.686;2023-03-12T18:53:59;14.30;99.90
48535;DHT22;34323;52.022;5.686;2023-03-12T18:56:54;14.10;99.90
48535;DHT22;34323;52.022;5.686;2023-03-12T19:02:26;14.70;99.90
48535;DHT22;34323;52.022;5.686;2023-03-12T19:05:18;14.80;99.90
48535;DHT22;34323;52.022;5.686;2023-03-12T19:08:10;14.80;99.90
48535;DHT22;34323;52.022;5.686;2023-03-12T19:10:56;14.90;99.90
48535;DHT22;34323;52.022;5.686;2023-03-12T19:13:41;14.40;99.90
48535;DHT22;34323;52.022;5.686;2023-03-12T19:16:27;14.50;99.90
48535;DHT22;34323;52.022;5.686;2023-03-12T19:18:59;14.80;99.90
48535;DHT22;34323;52.022;5.686;2023-03-12T19:21:31;14.60;99.90
48535;DHT22;34323;52.022;5.686;2023-03-12T19:23:59;14.60;99.90
48535;DHT22;34323;52.022;5.686;2023-03-12T19:26:26;14.80;99.90
48535;DHT22;34323;52.022;5.686;2023-03-12T19:32:21;14.40;99.90
48535;DHT22;34323;52.022;5.686;2023-03-12T19:35:32;14.50;99.90
48535;DHT22;34323;52.022;5.686;2023-03-12T19:38:25;14.60;99.90
48535;DHT22;34323;52.022;5.686;2023-03-12T19:41:23;14.30;99.90
48535;DHT22;34323;52.022;5.686;2023-03-12T19:43:55;14.10;99.90
48535;DHT22;34323;52.022;5.686;2023-03-12T19:46:38;14.30;99.90
48535;DHT22;34323;52.022;5.686;2023-03-12T19:49:31;14.30;99.90
48535;DHT22;34323;52.022;5.686;2023-03-12T19:52:01;13.80;99.90
48535;DHT22;34323;52.022;5.686;2023-03-12T19:58:06;14.10;99.90
48535;DHT22;34323;52.022;5.686;2023-03-12T20:01:07;14.10;99.90
48535;DHT22;34323;52.022;5.686;2023-03-12T20:03:41;14.00;99.90
48535;DHT22;34323;52.022;5.686;2023-03-12T20:06:25;14.50;99.90
48535;DHT22;34323;52.022;5.686;2023-03-12T20:09:06;14.30;99.90
48535;DHT22;34323;52.022;5.686;2023-03-12T20:11:46;14.20;99.90
48535;DHT22;34323;52.022;5.686;2023-03-12T20:14:50;14.40;99.90